logo
Search for airport 
image banner adimage banner adimage banner ad
image banner ad

SHHR - Carabineros De Chile

Located in Punta Arenas, Chile

ICAO - SHHR, IATA -

Data provided by Airmate  

General information

Coordinates: S53°9'23" W70°55'20"
Elevation is 213 feet MSL.
 
View others Airports in Magallanes

Operational data

Special qualification required
Current time UTC:
Current local time:
METAR: SCCI 211400Z 24013KT CAVOK 04/M07 Q1012 NOSIG
TAF: TAF SCCI 211036Z 2112/2212 22015KT 9999 FEW040 TN02/2112Z TX08/2118Z BECMG 2121/2123 27008KT BECMG 2210/2212 32015KT
View NOTAMs / SUP AIP / TFR affecting this airport [VIEW]
Communications frequencies: [VIEW]

Runways:

Airport contact information

Address: Punta Arenas Chile

Satellite view of SHHR